Time;durP1;ratioP1;P1;durP2;ratioP2;P2;SDS_P1;SDS_P2;PMS_P1;PMS_P2;Temp;Humidity;BMP_temperature;BMP_pressure;BME280_temperature;BME280_humidity;BME280_pressure;Samples;Min_cycle;Max_cycle;Signal;HPM_P1;HPM_P2
2023/03/26 00:01:25;;;;;;;7.60;3.25;;;7.60;99.90;;;;;;5057529;28;25075;-78
2023/03/26 00:03:57;;;;;;;14.60;3.30;;;7.60;99.90;;;;;;5057261;28;25074;-78
2023/03/26 00:06:27;;;;;;;6.07;3.25;;;7.60;99.90;;;;;;5057483;28;25121;-78
2023/03/26 00:08:56;;;;;;;8.88;2.88;;;7.60;99.90;;;;;;5057142;28;25070;-78
2023/03/26 00:11:26;;;;;;;9.00;3.60;;;7.60;99.90;;;;;;5057496;28;25128;-78
2023/03/26 00:13:56;;;;;;;11.38;3.13;;;7.60;99.90;;;;;;5056069;28;25068;-78
2023/03/26 00:16:27;;;;;;;7.72;2.80;;;7.60;99.90;;;;;;5057231;28;25075;-78
2023/03/26 00:18:56;;;;;;;14.93;3.85;;;7.60;99.90;;;;;;5057017;28;25110;-78
2023/03/26 00:21:28;;;;;;;7.22;2.90;;;7.60;99.90;;;;;;5056966;28;25065;-78
2023/03/26 00:24:03;;;;;;;9.38;2.88;;;7.60;99.90;;;;;;5056858;28;25060;-78
2023/03/26 00:26:32;;;;;;;4.65;1.85;;;7.60;99.90;;;;;;5057006;28;25120;-78
2023/03/26 00:29:02;;;;;;;11.85;3.78;;;7.60;99.90;;;;;;5056823;28;25112;-78
2023/03/26 00:31:30;;;;;;;13.30;2.88;;;7.60;99.90;;;;;;5055849;28;25075;-78
2023/03/26 00:33:57;;;;;;;6.13;2.63;;;7.60;99.90;;;;;;5055517;28;25112;-78
2023/03/26 00:36:25;;;;;;;14.68;3.10;;;7.60;99.90;;;;;;5057140;28;25053;-78
2023/03/26 00:38:53;;;;;;;9.93;4.82;;;7.60;99.90;;;;;;5056808;28;25059;-78
2023/03/26 00:41:24;;;;;;;7.45;3.15;;;7.60;99.90;;;;;;5055723;28;25101;-78
2023/03/26 00:43:57;;;;;;;11.10;2.75;;;7.50;99.90;;;;;;5056629;28;25123;-78
2023/03/26 00:46:26;;;;;;;7.63;2.55;;;7.50;99.90;;;;;;5056712;28;25093;-78
2023/03/26 00:48:57;;;;;;;12.25;2.58;;;7.50;99.90;;;;;;5056913;28;25074;-78
2023/03/26 00:51:26;;;;;;;7.60;2.50;;;7.50;99.90;;;;;;5056704;28;25163;-78
2023/03/26 00:53:54;;;;;;;12.77;2.83;;;7.50;99.90;;;;;;5073116;28;25062;-78
2023/03/26 00:56:21;;;;;;;8.50;3.45;;;7.50;99.90;;;;;;5058605;28;25080;-78
2023/03/26 00:58:49;;;;;;;18.63;3.45;;;7.40;99.90;;;;;;5076242;28;25075;-78
2023/03/26 01:01:26;;;;;;;12.23;3.65;;;7.40;99.90;;;;;;5076643;28;25061;-78
2023/03/26 01:03:58;;;;;;;14.07;3.83;;;7.30;99.90;;;;;;5076223;28;25090;-78
2023/03/26 01:06:31;;;;;;;14.88;3.47;;;7.30;99.90;;;;;;5076154;28;25072;-78
2023/03/26 01:09:05;;;;;;;7.53;2.63;;;7.30;99.90;;;;;;5076147;28;25101;-78
2023/03/26 01:11:34;;;;;;;7.93;2.55;;;7.30;99.90;;;;;;5076581;28;25061;-78
2023/03/26 01:14:07;;;;;;;15.73;3.30;;;7.30;99.90;;;;;;5076065;28;25065;-78
2023/03/26 01:16:51;;;;;;;8.77;3.38;;;7.30;99.90;;;;;;5076130;28;25119;-78
2023/03/26 01:19:38;;;;;;;9.40;2.53;;;7.30;99.90;;;;;;5076281;28;25093;-78
2023/03/26 01:22:11;;;;;;;21.30;4.03;;;7.30;99.90;;;;;;5058317;28;25109;-78
2023/03/26 01:24:40;;;;;;;7.85;3.53;;;7.20;99.90;;;;;;5058026;28;25095;-78
2023/03/26 01:27:27;;;;;;;13.20;3.83;;;7.20;99.90;;;;;;5076060;28;25069;-78
2023/03/26 01:30:03;;;;;;;15.55;4.35;;;7.20;99.90;;;;;;5075954;28;25070;-78
2023/03/26 01:32:43;;;;;;;11.80;4.15;;;7.20;99.90;;;;;;5076448;28;25130;-78
2023/03/26 01:35:34;;;;;;;12.13;3.58;;;7.20;99.90;;;;;;5076212;28;25131;-78
2023/03/26 01:38:28;;;;;;;12.07;4.30;;;7.30;99.90;;;;;;5076161;28;25068;-78
2023/03/26 01:41:00;;;;;;;14.82;4.78;;;7.30;99.90;;;;;;5076034;28;25044;-78
2023/03/26 01:43:48;;;;;;;11.60;4.18;;;7.30;99.90;;;;;;5076000;28;25067;-78
2023/03/26 01:46:16;;;;;;;12.60;3.65;;;7.30;99.90;;;;;;5080148;28;25081;-78
2023/03/26 01:48:45;;;;;;;14.85;4.97;;;7.30;99.90;;;;;;5079866;28;25113;-78
2023/03/26 01:51:25;;;;;;;15.82;4.88;;;7.30;99.90;;;;;;5079964;28;25057;-78
2023/03/26 01:53:53;;;;;;;17.40;4.10;;;7.30;99.90;;;;;;5079485;28;25091;-78
2023/03/26 01:56:32;;;;;;;13.88;4.10;;;7.30;99.90;;;;;;5079996;28;25064;-78
2023/03/26 01:59:28;;;;;;;13.15;5.28;;;7.30;99.90;;;;;;5079919;28;25086;-78
2023/03/26 02:02:28;;;;;;;14.65;4.53;;;7.30;99.90;;;;;;5079741;28;25126;-78
2023/03/26 02:05:12;;;;;;;9.45;5.00;;;7.30;99.90;;;;;;5041178;28;25064;-78
2023/03/26 02:08:08;;;;;;;13.90;5.03;;;7.30;99.90;;;;;;5079865;28;25108;-78
2023/03/26 02:10:41;;;;;;;20.08;4.88;;;7.30;99.90;;;;;;5079471;28;25117;-78
2023/03/26 02:13:09;;;;;;;11.93;4.03;;;7.30;99.90;;;;;;5079348;28;25091;-78
2023/03/26 02:15:36;;;;;;;10.40;4.80;;;7.40;99.90;;;;;;5079420;28;25078;-78
2023/03/26 02:18:04;;;;;;;14.93;5.10;;;7.40;99.90;;;;;;5079326;28;25076;-78
2023/03/26 02:20:31;;;;;;;12.98;4.75;;;7.40;99.90;;;;;;5061794;28;25065;-78
2023/03/26 02:22:59;;;;;;;20.90;6.18;;;7.40;99.90;;;;;;5079505;28;25077;-78
2023/03/26 02:25:26;;;;;;;15.55;5.43;;;7.40;99.90;;;;;;5079301;28;25099;-78
2023/03/26 02:27:54;;;;;;;16.70;5.15;;;7.30;99.90;;;;;;5079280;28;25063;-78
2023/03/26 02:30:24;;;;;;;14.60;5.18;;;7.30;99.90;;;;;;5079265;28;25072;-78
2023/03/26 02:32:52;;;;;;;14.23;4.88;;;7.20;99.90;;;;;;5078979;28;25080;-78
2023/03/26 02:35:20;;;;;;;14.00;5.03;;;7.20;99.90;;;;;;5061365;28;25075;-78
2023/03/26 02:37:49;;;;;;;12.05;5.45;;;7.10;99.90;;;;;;5079229;28;25057;-78
2023/03/26 02:40:19;;;;;;;14.30;5.03;;;7.10;99.90;;;;;;5078962;28;25120;-78
2023/03/26 02:42:47;;;;;;;9.40;5.18;;;7.10;99.90;;;;;;5078748;28;25114;-78
2023/03/26 02:45:15;;;;;;;13.18;5.38;;;7.00;99.90;;;;;;5078583;28;25078;-78
2023/03/26 02:47:44;;;;;;;15.40;5.03;;;7.10;99.90;;;;;;5078808;28;25109;-78
2023/03/26 02:50:12;;;;;;;13.88;5.50;;;7.00;99.90;;;;;;5078789;28;25108;-78
2023/03/26 02:52:39;;;;;;;11.77;5.53;;;7.00;99.90;;;;;;5057420;28;25065;-78
2023/03/26 02:55:07;;;;;;;19.83;6.72;;;7.00;99.90;;;;;;5058725;28;25122;-78
2023/03/26 02:57:34;;;;;;;14.05;5.50;;;6.90;99.90;;;;;;5058600;28;25063;-78
2023/03/26 03:00:12;;;;;;;18.45;5.82;;;6.90;99.90;;;;;;5057326;28;25109;-78
2023/03/26 03:02:43;;;;;;;13.60;5.90;;;6.80;99.90;;;;;;5058520;28;25129;-78
2023/03/26 03:05:10;;;;;;;15.82;5.35;;;6.80;99.90;;;;;;5058559;28;25054;-78
2023/03/26 03:07:38;;;;;;;16.52;6.82;;;6.80;99.90;;;;;;5058692;28;25059;-78
2023/03/26 03:10:12;;;;;;;11.93;4.40;;;6.80;99.90;;;;;;5057838;28;25060;-78
2023/03/26 03:12:40;;;;;;;18.83;6.40;;;6.80;99.90;;;;;;5058591;28;25076;-78
2023/03/26 03:15:08;;;;;;;16.77;5.28;;;6.80;99.90;;;;;;5058688;28;25086;-78
2023/03/26 03:17:35;;;;;;;15.55;6.03;;;6.80;99.90;;;;;;5057185;28;25072;-78
2023/03/26 03:20:04;;;;;;;12.45;5.72;;;6.80;99.90;;;;;;5058497;28;25111;-78
2023/03/26 03:22:32;;;;;;;17.63;6.50;;;6.90;99.90;;;;;;5058276;28;25101;-78
2023/03/26 03:24:59;;;;;;;15.27;5.85;;;6.90;99.90;;;;;;5058390;28;25069;-78
2023/03/26 03:27:28;;;;;;;15.65;6.43;;;6.90;99.90;;;;;;5058320;28;25057;-78
2023/03/26 03:29:57;;;;;;;15.57;6.32;;;7.00;99.90;;;;;;5057974;28;25063;-78
2023/03/26 03:32:26;;;;;;;11.50;6.15;;;7.00;99.90;;;;;;5058015;28;25070;-78
2023/03/26 03:34:54;;;;;;;16.23;6.43;;;7.10;99.90;;;;;;5056877;28;25074;-78
2023/03/26 03:37:22;;;;;;;15.20;7.97;;;7.10;99.90;;;;;;5058212;28;25092;-78
2023/03/26 03:39:49;;;;;;;14.77;8.50;;;7.10;99.90;;;;;;5058093;28;25089;-78
2023/03/26 03:42:17;;;;;;;15.25;7.38;;;7.20;99.90;;;;;;5058175;28;25064;-78
2023/03/26 03:44:44;;;;;;;17.50;6.78;;;7.20;99.90;;;;;;5056611;28;25062;-78
2023/03/26 03:47:12;;;;;;;13.82;6.85;;;7.20;99.90;;;;;;5058007;28;25075;-78
2023/03/26 03:49:42;;;;;;;24.10;8.73;;;7.20;99.90;;;;;;5057651;28;25060;-78
2023/03/26 03:52:09;;;;;;;15.27;6.57;;;7.20;99.90;;;;;;5057736;28;25110;-78
2023/03/26 03:54:36;;;;;;;17.52;7.32;;;7.30;99.90;;;;;;5057748;28;25093;-78
2023/03/26 03:57:04;;;;;;;18.60;7.30;;;7.30;99.90;;;;;;5057822;28;25149;-78
2023/03/26 03:59:31;;;;;;;14.73;7.95;;;7.30;99.90;;;;;;5039850;28;25118;-78
2023/03/26 04:01:58;;;;;;;12.80;6.45;;;7.30;99.90;;;;;;5057855;28;25146;-78
2023/03/26 04:04:26;;;;;;;19.02;7.10;;;7.30;99.90;;;;;;5057284;28;25093;-78
2023/03/26 04:06:53;;;;;;;15.38;7.13;;;7.30;99.90;;;;;;5056609;28;25159;-78
2023/03/26 04:09:21;;;;;;;12.48;6.82;;;7.40;99.90;;;;;;5057286;28;25112;-78
2023/03/26 04:11:49;;;;;;;13.73;6.22;;;7.40;99.90;;;;;;5057325;28;25111;-78
2023/03/26 04:14:16;;;;;;;15.23;7.43;;;7.40;99.90;;;;;;5057140;28;25062;-78
2023/03/26 04:16:44;;;;;;;16.08;7.30;;;7.40;99.90;;;;;;5057445;28;25110;-78
2023/03/26 04:19:13;;;;;;;16.38;7.00;;;7.40;99.90;;;;;;5039391;28;25069;-78
2023/03/26 04:21:41;;;;;;;13.75;6.80;;;7.40;99.90;;;;;;5057435;28;25060;-79
2023/03/26 04:24:09;;;;;;;10.80;5.90;;;7.40;99.90;;;;;;5056898;28;25071;-78
2023/03/26 04:26:37;;;;;;;16.55;7.32;;;7.40;99.90;;;;;;5056973;28;25076;-78
2023/03/26 04:29:10;;;;;;;14.98;7.45;;;7.40;99.90;;;;;;5057225;28;25102;-78
2023/03/26 04:31:38;;;;;;;17.35;7.90;;;7.40;99.90;;;;;;5057036;28;25073;-78
2023/03/26 04:34:13;;;;;;;20.55;8.35;;;7.40;99.90;;;;;;5056874;28;25068;-78
2023/03/26 04:36:41;;;;;;;19.38;7.40;;;7.30;99.90;;;;;;5056779;28;25083;-78
2023/03/26 04:39:11;;;;;;;22.17;8.50;;;7.30;99.90;;;;;;5056878;28;25097;-78
2023/03/26 04:41:39;;;;;;;19.27;9.20;;;7.30;99.90;;;;;;5056910;28;25059;-78
2023/03/26 04:44:06;;;;;;;19.77;8.75;;;7.30;99.90;;;;;;5056497;28;25117;-79
2023/03/26 04:46:33;;;;;;;21.40;9.52;;;7.30;99.90;;;;;;5038825;28;25112;-78
2023/03/26 04:49:01;;;;;;;19.92;8.38;;;7.30;99.90;;;;;;5056102;28;25069;-78
2023/03/26 04:51:37;;;;;;;21.77;9.25;;;7.30;99.90;;;;;;5056908;28;25052;-79
2023/03/26 04:54:05;;;;;;;;;;;7.30;99.90;;;;;;5072817;28;25123;-78
2023/03/26 04:56:54;;;;;;;22.60;8.77;;;7.30;99.90;;;;;;5077203;28;25053;-78
2023/03/26 04:59:35;;;;;;;22.95;9.43;;;7.30;99.90;;;;;;5077033;28;25068;-78
2023/03/26 05:02:07;;;;;;;25.55;10.75;;;7.30;99.90;;;;;;5076900;28;25097;-79
2023/03/26 05:04:35;;;;;;;24.98;10.40;;;7.30;99.90;;;;;;5076498;28;25066;-79
2023/03/26 05:07:02;;;;;;;29.63;11.23;;;7.30;99.90;;;;;;5076789;28;25055;-78
2023/03/26 05:09:30;;;;;;;36.85;11.73;;;7.40;99.90;;;;;;5076626;28;25071;-78
2023/03/26 05:11:57;;;;;;;26.13;10.48;;;7.40;99.90;;;;;;5076336;28;25074;-79
2023/03/26 05:14:24;;;;;;;32.92;13.02;;;7.40;99.90;;;;;;5076378;28;25051;-78
2023/03/26 05:16:52;;;;;;;34.45;14.00;;;7.40;99.90;;;;;;5076578;28;25089;-78
2023/03/26 05:19:20;;;;;;;29.98;14.27;;;7.40;99.90;;;;;;5076476;28;25080;-78
2023/03/26 05:21:47;;;;;;;40.65;13.73;;;7.40;99.90;;;;;;5076266;28;25059;-79
2023/03/26 05:24:14;;;;;;;33.42;14.65;;;7.40;99.90;;;;;;5076055;28;25098;-78
2023/03/26 05:26:42;;;;;;;30.92;14.55;;;7.40;99.90;;;;;;5076286;28;25103;-78
2023/03/26 05:29:09;;;;;;;34.38;13.68;;;7.40;99.90;;;;;;5076369;28;25106;-79
2023/03/26 05:31:36;;;;;;;35.20;13.90;;;7.50;99.90;;;;;;5076712;28;25079;-77
2023/03/26 05:34:05;;;;;;;39.97;14.23;;;7.50;99.90;;;;;;5076106;28;25105;-79
2023/03/26 05:36:33;;;;;;;30.42;13.30;;;7.50;99.90;;;;;;5076286;28;25114;-78
2023/03/26 05:39:00;;;;;;;33.35;13.77;;;7.50;99.90;;;;;;5076085;28;25059;-78
2023/03/26 05:41:28;;;;;;;35.47;14.32;;;7.50;99.90;;;;;;5076045;28;25110;-78
2023/03/26 05:43:55;;;;;;;37.55;14.18;;;7.50;99.90;;;;;;5058204;28;25071;-78
2023/03/26 05:46:22;;;;;;;36.72;14.43;;;7.60;99.90;;;;;;5058406;28;25056;-79
2023/03/26 05:48:50;;;;;;;33.50;13.77;;;7.60;99.90;;;;;;5076547;28;25061;-78
2023/03/26 05:51:18;;;;;;;31.80;13.18;;;7.60;99.90;;;;;;5076577;28;25093;-78
2023/03/26 05:53:45;;;;;;;34.65;13.82;;;7.60;99.90;;;;;;5054621;28;25059;-78
2023/03/26 05:56:12;;;;;;;36.78;12.88;;;7.60;99.90;;;;;;5056166;28;25109;-78
2023/03/26 05:58:40;;;;;;;29.45;12.60;;;7.60;99.90;;;;;;5055984;28;25081;-78
2023/03/26 06:01:15;;;;;;;34.58;13.38;;;7.70;99.90;;;;;;5055724;28;25063;-76
2023/03/26 06:03:45;;;;;;;30.58;12.52;;;7.70;99.90;;;;;;5055878;28;25065;-78
2023/03/26 06:06:15;;;;;;;36.17;12.20;;;7.70;99.90;;;;;;5055733;28;25060;-77
2023/03/26 06:08:50;;;;;;;26.83;12.27;;;7.80;99.90;;;;;;5055740;28;25080;-75
2023/03/26 06:11:18;;;;;;;32.30;13.20;;;7.70;99.90;;;;;;5056396;28;25078;-75
2023/03/26 06:13:46;;;;;;;32.72;12.55;;;7.70;99.90;;;;;;5056155;28;25085;-76
2023/03/26 06:16:16;;;;;;;38.40;12.18;;;7.80;99.90;;;;;;5057402;28;25099;-79
2023/03/26 06:18:43;;;;;;;33.03;11.82;;;7.80;99.90;;;;;;5055676;28;25074;-83
2023/03/26 06:21:11;;;;;;;31.73;11.57;;;7.70;99.90;;;;;;5055828;28;25048;-83
2023/03/26 06:23:38;;;;;;;37.30;12.40;;;7.80;99.90;;;;;;5055509;28;25081;-83
2023/03/26 06:26:06;;;;;;;30.27;11.95;;;7.80;99.90;;;;;;5054395;28;25062;-81
2023/03/26 06:28:34;;;;;;;28.50;10.15;;;7.80;99.90;;;;;;5055465;28;25146;-81
2023/03/26 06:31:02;;;;;;;27.33;11.45;;;7.80;99.90;;;;;;5056358;28;25058;-82
2023/03/26 06:33:30;;;;;;;26.55;12.35;;;7.80;99.90;;;;;;5059139;28;25070;-82
2023/03/26 06:35:57;;;;;;;31.65;12.15;;;7.80;99.90;;;;;;5057991;28;25064;-82
2023/03/26 06:38:24;;;;;;;31.80;10.90;;;7.90;99.90;;;;;;5058990;28;25060;-85
2023/03/26 06:40:52;;;;;;;39.28;12.48;;;7.90;99.90;;;;;;5059500;28;25140;-82
2023/03/26 06:43:19;;;;;;;36.70;10.57;;;7.90;99.90;;;;;;5058864;28;25052;-77
2023/03/26 06:45:51;;;;;;;32.60;10.80;;;8.00;99.90;;;;;;5059461;28;25072;-74
2023/03/26 06:48:19;;;;;;;33.92;10.32;;;8.00;99.90;;;;;;5059345;28;25086;-76
2023/03/26 06:50:47;;;;;;;41.47;10.90;;;8.00;99.90;;;;;;5059502;28;25073;-74
2023/03/26 06:53:14;;;;;;;34.58;10.80;;;8.00;99.90;;;;;;5067222;28;25077;-75
2023/03/26 06:55:42;;;;;;;38.47;11.10;;;8.00;99.90;;;;;;5079021;28;25128;-74
2023/03/26 06:58:11;;;;;;;38.92;10.75;;;8.00;99.90;;;;;;5079316;28;25123;-76
2023/03/26 07:00:39;;;;;;;31.02;10.18;;;8.10;99.90;;;;;;5078923;28;25065;-76
2023/03/26 07:03:06;;;;;;;34.92;11.73;;;8.10;99.90;;;;;;5078886;28;25078;-76
2023/03/26 07:05:33;;;;;;;29.33;11.18;;;8.10;99.90;;;;;;5078661;28;25153;-75
2023/03/26 07:08:01;;;;;;;32.15;10.55;;;8.20;99.90;;;;;;5078635;28;25109;-77
2023/03/26 07:10:29;;;;;;;35.60;12.10;;;8.20;99.90;;;;;;5079123;28;25051;-77
2023/03/26 07:12:56;;;;;;;30.35;10.13;;;8.30;99.90;;;;;;5078516;28;25062;-77
2023/03/26 07:15:23;;;;;;;29.60;10.95;;;8.40;99.90;;;;;;5078777;28;25115;-77
2023/03/26 07:17:50;;;;;;;26.48;10.93;;;8.50;99.90;;;;;;5078951;28;25056;-79
2023/03/26 07:20:17;;;;;;;37.78;10.15;;;8.50;99.90;;;;;;5078943;28;25097;-83
2023/03/26 07:22:44;;;;;;;36.53;11.80;;;8.50;99.90;;;;;;5078346;28;25148;-79
2023/03/26 07:25:13;;;;;;;22.05;9.70;;;8.60;99.90;;;;;;5078867;28;25084;-78
2023/03/26 07:28:11;;;;;;;27.17;9.88;;;8.70;99.90;;;;;;5078297;28;25111;-78
2023/03/26 07:30:57;;;;;;;35.45;10.45;;;8.90;99.90;;;;;;5078242;28;25080;-78
2023/03/26 07:33:47;;;;;;;28.33;9.60;;;9.00;99.90;;;;;;5078441;28;25071;-78
2023/03/26 07:36:45;;;;;;;22.73;10.25;;;9.00;99.90;;;;;;5078271;28;25090;-79
2023/03/26 07:39:27;;;;;;;35.50;10.70;;;9.00;99.90;;;;;;5078306;28;25111;-77
2023/03/26 07:42:09;;;;;;;33.97;8.50;;;9.10;99.90;;;;;;5076943;28;25119;-81
2023/03/26 07:44:50;;;;;;;22.38;8.77;;;9.10;99.90;;;;;;5078131;28;25053;-78
2023/03/26 07:47:25;;;;;;;32.40;9.30;;;9.10;99.90;;;;;;5078045;28;25071;-79
2023/03/26 07:49:54;;;;;;;30.88;8.32;;;9.20;99.90;;;;;;5078385;28;25070;-79
2023/03/26 07:52:22;;;;;;;31.05;8.43;;;9.20;99.90;;;;;;5077603;28;25074;-78
2023/03/26 07:54:50;;;;;;;28.42;8.55;;;9.20;99.90;;;;;;5077703;28;25069;-78
2023/03/26 07:57:55;;;;;;;31.35;7.97;;;9.20;99.90;;;;;;5077841;28;25113;-79
2023/03/26 08:00:35;;;;;;;27.85;9.00;;;9.20;99.90;;;;;;5077836;28;25105;-79
2023/03/26 08:03:03;;;;;;;31.85;8.23;;;9.20;99.90;;;;;;5077688;28;25071;-78
2023/03/26 08:05:34;;;;;;;25.70;8.07;;;9.20;99.90;;;;;;5077898;28;25054;-78
2023/03/26 08:08:26;;;;;;;23.60;6.68;;;9.20;99.90;;;;;;5077450;28;25070;-77
2023/03/26 08:11:24;;;;;;;20.67;7.03;;;9.20;99.90;;;;;;5059646;28;25141;-77
2023/03/26 08:13:52;;;;;;;18.10;6.32;;;9.20;99.90;;;;;;5077605;28;25059;-78
2023/03/26 08:16:28;;;;;;;15.07;5.75;;;9.20;99.90;;;;;;5077548;28;25073;-77
2023/03/26 08:19:18;;;;;;;25.10;6.47;;;9.30;99.90;;;;;;5077229;28;25056;-76
2023/03/26 08:22:02;;;;;;;20.05;6.72;;;9.30;99.90;;;;;;5059565;28;25140;-77
2023/03/26 08:24:38;;;;;;;33.20;6.93;;;9.50;99.90;;;;;;5076993;28;25071;-77
2023/03/26 08:27:14;;;;;;;20.98;6.88;;;9.70;99.90;;;;;;5077394;28;25054;-78
2023/03/26 08:30:10;;;;;;;13.70;6.57;;;9.80;99.90;;;;;;5077349;28;25103;-78
2023/03/26 08:32:38;;;;;;;20.00;5.97;;;10.00;99.90;;;;;;5059205;28;25082;-78
2023/03/26 08:35:06;;;;;;;18.27;6.22;;;10.20;99.90;;;;;;5076915;28;25077;-78
2023/03/26 08:37:33;;;;;;;19.23;5.00;;;10.30;99.90;;;;;;5059109;28;25046;-78
2023/03/26 08:40:00;;;;;;;15.65;6.13;;;10.30;99.90;;;;;;5076788;28;25052;-78
2023/03/26 08:43:00;;;;;;;21.30;5.70;;;10.50;99.90;;;;;;5076817;28;25060;-77
2023/03/26 08:45:58;;;;;;;15.30;5.05;;;10.60;99.90;;;;;;5076768;28;25068;-78
2023/03/26 08:48:50;;;;;;;15.93;4.93;;;10.70;99.90;;;;;;5076674;28;25064;-78
2023/03/26 08:51:58;;;;;;;23.45;7.53;;;10.70;99.90;;;;;;5076761;28;25112;-78
2023/03/26 08:54:52;;;;;;;17.73;6.05;;;10.70;99.90;;;;;;5076229;28;25113;-78
2023/03/26 08:57:43;;;;;;;24.25;6.10;;;10.70;99.90;;;;;;5076673;28;25065;-78
2023/03/26 09:00:32;;;;;;;15.75;5.47;;;10.70;99.90;;;;;;5059005;28;25052;-78
2023/03/26 09:03:12;;;;;;;19.73;6.65;;;10.70;99.90;;;;;;5076807;28;25068;-79
2023/03/26 09:06:03;;;;;;;19.10;7.05;;;10.80;99.90;;;;;;5076822;28;25114;-78
2023/03/26 09:08:43;;;;;;;23.08;9.25;;;10.80;99.90;;;;;;5076744;28;25122;-76
2023/03/26 09:11:23;;;;;;;25.00;7.78;;;10.90;99.90;;;;;;5077732;28;25107;-76
2023/03/26 09:14:11;;;;;;;25.73;8.25;;;11.00;99.90;;;;;;5058661;28;25136;-78
2023/03/26 09:17:14;;;;;;;20.50;6.35;;;11.20;99.90;;;;;;5076933;28;25095;-77
2023/03/26 09:19:51;;;;;;;21.60;7.25;;;11.30;99.90;;;;;;5076647;28;25055;-77
2023/03/26 09:22:37;;;;;;;24.73;8.13;;;11.40;99.90;;;;;;5076748;28;25137;-77
2023/03/26 09:25:30;;;;;;;23.88;8.00;;;11.40;99.90;;;;;;5076526;28;25105;-76
2023/03/26 09:28:10;;;;;;;23.73;7.95;;;11.40;99.90;;;;;;5076194;28;25053;-77
2023/03/26 09:31:10;;;;;;;22.88;8.02;;;11.40;99.90;;;;;;5076617;28;25106;-77
2023/03/26 09:34:06;;;;;;;24.42;8.05;;;11.30;99.90;;;;;;5076190;28;25091;-77
2023/03/26 09:36:37;;;;;;;22.63;6.90;;;11.30;99.90;;;;;;5073957;28;25068;-77
2023/03/26 09:39:30;;;;;;;20.23;7.03;;;11.30;99.90;;;;;;5076456;28;25070;-77
2023/03/26 09:42:23;;;;;;;27.70;10.25;;;11.30;99.90;;;;;;5076298;28;25112;-77
2023/03/26 09:45:26;;;;;;;24.17;7.97;;;11.30;99.90;;;;;;5058256;28;25067;-77
2023/03/26 09:48:28;;;;;;;20.95;8.00;;;11.40;99.90;;;;;;5076328;28;25091;-77
2023/03/26 09:51:28;;;;;;;19.42;7.32;;;11.60;99.90;;;;;;5076030;28;25082;-77
2023/03/26 09:54:43;;;;;;;20.27;7.30;;;11.70;99.90;;;;;;5076032;28;25120;-77
2023/03/26 09:57:35;;;;;;;22.50;6.88;;;11.80;99.90;;;;;;5024529;28;25059;-79
2023/03/26 10:00:46;;;;;;;16.27;5.75;;;12.00;99.90;;;;;;5058542;28;25059;-81
2023/03/26 10:03:50;;;;;;;12.77;5.47;;;12.00;99.90;;;;;;5050669;28;25069;-77
2023/03/26 10:06:36;;;;;;;11.65;5.13;;;12.00;99.90;;;;;;5078666;28;25135;-76
2023/03/26 10:09:10;;;;;;;16.95;5.93;;;12.10;99.90;;;;;;5080446;28;25074;-78
2023/03/26 10:12:09;;;;;;;17.50;6.68;;;12.10;99.90;;;;;;5079987;28;25114;-77
2023/03/26 10:15:07;;;;;;;13.27;6.45;;;12.10;99.90;;;;;;5079574;28;25144;-77
2023/03/26 10:17:51;;;;;;;22.17;7.13;;;12.20;99.90;;;;;;5079552;28;25066;-78
2023/03/26 10:20:51;;;;;;;20.70;7.43;;;12.20;99.90;;;;;;5079812;28;25083;-79
2023/03/26 10:23:31;;;;;;;21.52;6.90;;;12.40;99.90;;;;;;5079422;28;25158;-79
2023/03/26 10:26:10;;;;;;;12.73;4.45;;;12.50;99.90;;;;;;5079866;28;25067;-77
2023/03/26 10:28:50;;;;;;;11.27;4.25;;;12.50;99.90;;;;;;5079905;28;25134;-80
2023/03/26 10:31:28;;;;;;;13.32;5.72;;;12.40;99.90;;;;;;5079571;28;25069;-79
2023/03/26 10:34:24;;;;;;;13.10;3.60;;;12.40;99.90;;;;;;5079460;28;25103;-77
2023/03/26 10:37:26;;;;;;;10.85;4.57;;;12.20;99.90;;;;;;5079224;28;25197;-76
2023/03/26 10:40:15;;;;;;;28.88;6.47;;;12.00;99.90;;;;;;5061286;28;25050;-76
2023/03/26 10:43:18;;;;;;;30.08;7.18;;;11.80;99.90;;;;;;5079297;28;25071;-79
2023/03/26 10:45:50;;;;;;;21.00;6.30;;;11.60;99.90;;;;;;5079611;28;25061;-75
2023/03/26 10:48:30;;;;;;;17.15;6.63;;;11.40;99.90;;;;;;5078934;28;25051;-77
2023/03/26 10:51:29;;;;;;;13.43;5.78;;;11.00;99.90;;;;;;5079042;28;25060;-77
2023/03/26 10:54:29;;;;;;;14.40;7.40;;;10.50;99.90;;;;;;5078747;28;25060;-76
2023/03/26 10:56:58;;;;;;;17.95;6.53;;;10.00;99.90;;;;;;5057808;28;25126;-77
2023/03/26 10:59:26;;;;;;;15.25;6.10;;;9.80;99.90;;;;;;5061347;28;25119;-77
2023/03/26 11:02:17;;;;;;;15.13;6.03;;;9.60;99.90;;;;;;5078862;28;25129;-79
2023/03/26 11:05:26;;;;;;;16.23;6.25;;;9.60;99.90;;;;;;5078933;28;25058;-78
2023/03/26 11:08:30;;;;;;;15.52;6.78;;;9.60;99.90;;;;;;5078980;28;25055;-78
2023/03/26 11:11:25;;;;;;;17.73;6.60;;;9.70;99.90;;;;;;5078616;28;25105;-80
2023/03/26 11:14:04;;;;;;;18.17;6.68;;;9.70;99.90;;;;;;5079420;28;25057;-80
2023/03/26 11:16:36;;;;;;;22.08;6.70;;;9.90;99.90;;;;;;5078796;28;25086;-76
2023/03/26 11:19:10;;;;;;;17.20;7.30;;;9.90;99.90;;;;;;5078715;28;25059;-76
2023/03/26 11:21:55;;;;;;;16.63;6.45;;;10.00;99.90;;;;;;5078671;28;25108;-78
2023/03/26 11:24:49;;;;;;;14.70;6.40;;;10.00;99.90;;;;;;5078598;28;25070;-78
2023/03/26 11:27:40;;;;;;;20.02;6.63;;;9.90;99.90;;;;;;5060724;28;25114;-78
2023/03/26 11:30:32;;;;;;;18.10;6.55;;;9.90;99.90;;;;;;5065355;28;25083;-78
2023/03/26 11:33:12;;;;;;;16.65;6.05;;;9.90;99.90;;;;;;5078207;28;25069;-78
2023/03/26 11:35:48;;;;;;;16.58;7.07;;;9.80;99.90;;;;;;5078368;28;25093;-78
2023/03/26 11:38:45;;;;;;;15.98;6.50;;;9.70;99.90;;;;;;5078434;28;25095;-78
2023/03/26 11:41:22;;;;;;;13.25;5.57;;;9.60;99.90;;;;;;5057689;28;25070;-78
2023/03/26 11:44:06;;;;;;;16.38;7.03;;;9.60;99.90;;;;;;5077597;28;25068;-78
2023/03/26 11:46:39;;;;;;;18.55;7.00;;;9.50;99.90;;;;;;5075734;28;25057;-78
2023/03/26 11:49:12;;;;;;;14.40;7.20;;;9.50;99.90;;;;;;5078384;28;25117;-78
2023/03/26 11:51:42;;;;;;;15.93;6.82;;;9.50;99.90;;;;;;5078364;28;25059;-78
2023/03/26 11:54:12;;;;;;;18.75;7.32;;;9.50;99.90;;;;;;5077583;28;25105;-78
2023/03/26 11:56:58;;;;;;;17.38;7.30;;;9.60;99.90;;;;;;5078214;28;25098;-78
2023/03/26 11:59:44;;;;;;;19.77;7.70;;;9.60;99.90;;;;;;5077919;28;25092;-78
2023/03/26 12:02:11;;;;;;;19.52;7.10;;;9.70;99.90;;;;;;5077630;28;25059;-78
2023/03/26 12:04:42;;;;;;;18.05;7.30;;;9.80;99.90;;;;;;5077741;28;25066;-78
2023/03/26 12:07:17;;;;;;;17.48;7.45;;;9.90;99.90;;;;;;5059887;28;25116;-78
2023/03/26 12:09:55;;;;;;;18.35;7.50;;;9.90;99.90;;;;;;5077458;28;25124;-78
2023/03/26 12:12:31;;;;;;;20.35;8.05;;;9.90;99.90;;;;;;5077404;28;25153;-78
2023/03/26 12:15:00;;;;;;;19.33;7.60;;;9.90;99.90;;;;;;5059633;28;25052;-78
2023/03/26 12:17:34;;;;;;;15.40;6.95;;;9.90;99.90;;;;;;5077759;28;25106;-78
2023/03/26 12:20:22;;;;;;;17.75;7.30;;;10.00;99.90;;;;;;5077849;28;25139;-78
2023/03/26 12:22:51;;;;;;;12.57;6.15;;;10.00;99.90;;;;;;5077181;28;25075;-78
2023/03/26 12:25:21;;;;;;;11.80;7.22;;;10.00;99.90;;;;;;5077268;28;25106;-77
2023/03/26 12:28:03;;;;;;;8.18;2.78;;;10.00;99.90;;;;;;5076543;28;25069;-78
2023/03/26 12:30:38;;;;;;;15.93;6.30;;;9.90;99.90;;;;;;5077341;28;25064;-77
2023/03/26 12:33:20;;;;;;;10.93;3.78;;;9.70;99.90;;;;;;5077250;28;25117;-77
2023/03/26 12:35:48;;;;;;;9.25;2.05;;;9.60;99.90;;;;;;5077437;28;25136;-77
2023/03/26 12:38:36;;;;;;;8.32;2.17;;;9.50;99.90;;;;;;5077225;28;25065;-78
2023/03/26 12:41:19;;;;;;;6.35;1.63;;;9.40;99.90;;;;;;5076884;28;25091;-77
2023/03/26 12:43:51;;;;;;;8.57;1.98;;;9.30;99.90;;;;;;5076699;28;25054;-78
2023/03/26 12:46:30;;;;;;;9.90;2.65;;;9.20;99.90;;;;;;5076900;28;25061;-77
2023/03/26 12:49:10;;;;;;;4.55;1.67;;;9.10;99.90;;;;;;5076912;28;25091;-78
2023/03/26 12:51:55;;;;;;;7.05;2.28;;;9.10;99.90;;;;;;5077000;28;25120;-77
2023/03/26 12:54:48;;;;;;;9.25;2.08;;;9.20;99.90;;;;;;5055885;28;25073;-78
2023/03/26 12:57:24;;;;;;;7.75;1.98;;;9.20;99.90;;;;;;5056809;28;25062;-78
2023/03/26 13:00:25;;;;;;;5.22;1.40;;;9.20;99.90;;;;;;5056622;28;25108;-78
2023/03/26 13:03:05;;;;;;;4.00;1.45;;;9.30;99.90;;;;;;5056537;28;25098;-78
2023/03/26 13:05:58;;;;;;;5.82;2.10;;;9.30;99.90;;;;;;5057112;28;25077;-81
2023/03/26 13:09:07;;;;;;;7.28;1.80;;;9.40;99.90;;;;;;5055413;28;25058;-78
2023/03/26 13:11:55;;;;;;;7.55;1.90;;;9.40;99.90;;;;;;5056631;28;25074;-78
2023/03/26 13:14:52;;;;;;;6.03;1.67;;;9.40;99.90;;;;;;5056382;28;25086;-78
2023/03/26 13:17:48;;;;;;;4.85;2.05;;;9.50;99.90;;;;;;5055322;28;25094;-78
2023/03/26 13:20:28;;;;;;;7.13;2.85;;;9.50;99.90;;;;;;5056494;28;25140;-78
2023/03/26 13:23:17;;;;;;;4.22;1.63;;;9.50;99.90;;;;;;5056698;28;25072;-78
2023/03/26 13:26:13;;;;;;;4.80;2.20;;;9.60;99.90;;;;;;5056244;28;25055;-77
2023/03/26 13:29:12;;;;;;;7.78;1.80;;;9.60;99.90;;;;;;5056519;28;25063;-78
2023/03/26 13:32:06;;;;;;;4.43;1.15;;;9.60;99.90;;;;;;5056302;28;25105;-78
2023/03/26 13:35:03;;;;;;;2.80;1.10;;;9.60;99.90;;;;;;5055881;28;25076;-78